createdAt,value
2024-02-28T00:01:06.974Z,1.17
2024-02-28T00:03:35.162Z,1.42
2024-02-28T00:06:02.497Z,1.65
2024-02-28T00:08:29.696Z,1.42
2024-02-28T00:10:56.898Z,1.42
2024-02-28T00:13:25.771Z,2.33
2024-02-28T00:15:53.112Z,1.15
2024-02-28T00:18:20.730Z,1.38
2024-02-28T00:20:48.207Z,1.30
2024-02-28T00:23:15.409Z,1.50
2024-02-28T00:25:42.864Z,1.73
2024-02-28T00:28:10.230Z,2.38
2024-02-28T00:30:37.709Z,1.15
2024-02-28T00:33:05.129Z,1.50
2024-02-28T00:35:39.413Z,1.13
2024-02-28T00:38:07.654Z,1.63
2024-02-28T00:40:35.497Z,1.98
2024-02-28T00:43:03.544Z,1.38
2024-02-28T00:45:30.638Z,1.48
2024-02-28T00:47:58.178Z,0.90
2024-02-28T00:50:25.672Z,1.40
2024-02-28T00:52:52.696Z,1.67
2024-02-28T00:55:20.143Z,1.58
2024-02-28T00:57:47.557Z,1.38
2024-02-28T01:00:15.029Z,1.55
2024-02-28T01:02:45.033Z,0.85
2024-02-28T01:05:12.788Z,1.27
2024-02-28T01:07:40.091Z,1.45
2024-02-28T01:10:08.705Z,1.25
2024-02-28T01:12:36.028Z,1.05
2024-02-28T01:15:03.291Z,1.52
2024-02-28T01:17:32.036Z,1.00
2024-02-28T01:19:59.495Z,5.68
2024-02-28T01:22:26.500Z,3.15
2024-02-28T01:24:54.248Z,1.83
2024-02-28T01:27:21.568Z,1.27
2024-02-28T01:29:48.737Z,1.02
2024-02-28T01:32:15.877Z,1.80
2024-02-28T01:34:43.027Z,2.42
2024-02-28T01:37:10.122Z,1.15
2024-02-28T01:39:37.242Z,1.67
2024-02-28T01:42:04.728Z,2.20
2024-02-28T01:44:31.910Z,2.50
2024-02-28T01:46:59.720Z,2.20
2024-02-28T01:49:26.947Z,3.10
2024-02-28T01:51:55.194Z,2.22
2024-02-28T01:54:22.573Z,2.80
2024-02-28T01:56:50.754Z,2.40
2024-02-28T01:59:19.053Z,3.15
2024-02-28T02:01:46.889Z,2.13
2024-02-28T02:04:14.101Z,2.33
2024-02-28T02:06:46.103Z,2.85
2024-02-28T02:09:13.480Z,3.70
2024-02-28T02:11:41.190Z,4.20
2024-02-28T02:14:08.472Z,3.58
2024-02-28T02:16:36.181Z,3.63
2024-02-28T02:19:05.475Z,3.33
2024-02-28T02:21:54.361Z,3.20
2024-02-28T02:24:21.562Z,2.42
2024-02-28T02:26:48.903Z,2.33
2024-02-28T02:29:16.085Z,2.10
2024-02-28T02:31:43.580Z,1.85
2024-02-28T02:34:10.593Z,2.55
2024-02-28T02:36:37.842Z,2.30
2024-02-28T02:39:05.154Z,2.20
2024-02-28T02:41:32.321Z,2.10
2024-02-28T02:43:59.848Z,2.13
2024-02-28T02:46:27.035Z,2.53
2024-02-28T02:48:54.350Z,2.60
2024-02-28T02:51:21.657Z,2.05
2024-02-28T02:53:48.891Z,1.67
2024-02-28T02:56:16.007Z,2.13
2024-02-28T02:58:43.364Z,1.77
2024-02-28T03:01:10.629Z,1.85
2024-02-28T03:03:38.916Z,2.33
2024-02-28T03:06:06.602Z,1.75
2024-02-28T03:08:34.037Z,2.55
2024-02-28T03:11:01.360Z,1.50
2024-02-28T03:13:29.375Z,2.05
2024-02-28T03:15:56.625Z,1.70
2024-02-28T03:18:23.895Z,1.35
2024-02-28T03:20:51.110Z,2.10
2024-02-28T03:23:18.395Z,1.30
2024-02-28T03:25:46.400Z,1.52
2024-02-28T03:28:13.802Z,1.60
2024-02-28T03:30:41.013Z,2.03
2024-02-28T03:33:09.270Z,2.92
2024-02-28T03:35:37.068Z,1.80
2024-02-28T03:38:04.588Z,1.40
2024-02-28T03:40:31.809Z,1.95
2024-02-28T03:43:00.478Z,2.00
2024-02-28T03:45:30.616Z,2.15
2024-02-28T03:47:58.258Z,1.90
2024-02-28T03:50:25.577Z,2.42
2024-02-28T03:52:52.582Z,2.00
2024-02-28T03:55:20.319Z,2.08
2024-02-28T03:57:53.211Z,1.95
2024-02-28T04:00:20.910Z,2.45
2024-02-28T04:02:47.992Z,2.35
2024-02-28T04:05:15.120Z,2.33
2024-02-28T04:07:42.353Z,2.80
2024-02-28T04:10:12.330Z,2.08
2024-02-28T04:12:39.798Z,2.47
2024-02-28T04:15:07.094Z,2.22
2024-02-28T04:17:34.308Z,2.45
2024-02-28T04:20:05.608Z,2.45
2024-02-28T04:22:32.819Z,2.95
2024-02-28T04:25:00.024Z,2.80
2024-02-28T04:27:27.296Z,2.88
2024-02-28T04:29:54.655Z,2.88
2024-02-28T04:32:21.796Z,2.85
2024-02-28T04:34:49.002Z,3.45
2024-02-28T04:37:16.211Z,2.83
2024-02-28T04:39:43.276Z,2.47
2024-02-28T04:42:10.459Z,2.60
2024-02-28T04:44:37.751Z,3.17
2024-02-28T04:47:05.526Z,2.30
2024-02-28T04:49:32.683Z,2.13
2024-02-28T04:51:59.837Z,2.00
2024-02-28T04:54:26.983Z,2.35
2024-02-28T04:56:54.087Z,2.40
2024-02-28T04:59:21.257Z,1.80
2024-02-28T05:01:49.301Z,1.80
2024-02-28T05:04:16.353Z,2.05
2024-02-28T05:06:43.494Z,1.50
2024-02-28T05:09:10.878Z,1.40
2024-02-28T05:11:37.999Z,2.38
2024-02-28T05:14:05.484Z,1.70
2024-02-28T05:16:33.573Z,1.75
2024-02-28T05:19:00.965Z,1.35
2024-02-28T05:21:28.458Z,1.60
2024-02-28T05:23:55.694Z,1.40
2024-02-28T05:26:22.922Z,1.63
2024-02-28T05:28:50.069Z,1.77
2024-02-28T05:31:24.654Z,1.50
2024-02-28T05:33:56.183Z,1.75
2024-02-28T05:36:25.023Z,1.45
2024-02-28T05:38:53.339Z,1.35
2024-02-28T05:41:20.896Z,1.63
2024-02-28T05:43:48.847Z,2.20
2024-02-28T05:46:17.256Z,1.73
2024-02-28T05:48:45.618Z,1.80
2024-02-28T05:51:14.505Z,2.03
2024-02-28T05:53:43.801Z,1.85
2024-02-28T05:56:18.380Z,2.67
2024-02-28T05:58:46.098Z,2.50
2024-02-28T06:01:16.553Z,2.45
2024-02-28T06:03:44.899Z,2.40
2024-02-28T06:06:12.201Z,2.10
2024-02-28T06:08:40.799Z,2.20
2024-02-28T06:11:09.651Z,2.28
2024-02-28T06:13:37.625Z,2.35
2024-02-28T06:16:05.055Z,3.15
2024-02-28T06:18:35.038Z,3.17
2024-02-28T06:21:02.862Z,2.30
2024-02-28T06:23:30.620Z,2.10
2024-02-28T06:25:58.499Z,3.00
2024-02-28T06:28:26.140Z,2.63
2024-02-28T06:30:53.616Z,2.45
2024-02-28T06:33:20.974Z,2.72
2024-02-28T06:35:48.089Z,2.90
2024-02-28T06:38:15.138Z,4.00
2024-02-28T06:40:42.922Z,3.80
2024-02-28T06:43:10.251Z,3.42
2024-02-28T06:45:38.149Z,3.42
2024-02-28T06:48:06.819Z,3.58
2024-02-28T06:50:34.306Z,4.55
2024-02-28T06:53:01.508Z,3.30
2024-02-28T06:55:28.856Z,2.92
2024-02-28T06:57:56.051Z,2.97
2024-02-28T07:00:23.340Z,3.70
2024-02-28T07:02:50.390Z,3.03
2024-02-28T07:05:17.800Z,3.15
2024-02-28T07:07:45.089Z,3.10
2024-02-28T07:10:12.537Z,2.90
2024-02-28T07:12:39.903Z,2.28
2024-02-28T07:15:07.550Z,2.20
2024-02-28T07:17:34.920Z,2.58
2024-02-28T07:20:02.141Z,2.63
2024-02-28T07:22:30.830Z,3.67
2024-02-28T07:24:58.104Z,3.28
2024-02-28T07:27:28.274Z,3.47
2024-02-28T07:29:55.747Z,3.78
2024-02-28T07:32:23.077Z,2.60
2024-02-28T07:34:50.279Z,3.38
2024-02-28T07:37:17.566Z,3.22
2024-02-28T07:39:45.303Z,3.47
2024-02-28T07:42:12.426Z,4.55
2024-02-28T07:44:40.025Z,4.18
2024-02-28T07:47:07.627Z,5.32
2024-02-28T07:49:34.760Z,4.47
2024-02-28T07:52:02.163Z,3.28
2024-02-28T07:54:29.403Z,3.13
2024-02-28T07:56:56.545Z,2.85
2024-02-28T07:59:24.400Z,3.35
2024-02-28T08:01:51.876Z,3.10
2024-02-28T08:04:19.591Z,3.47
2024-02-28T08:06:47.321Z,4.15
2024-02-28T08:09:16.625Z,3.83
2024-02-28T08:11:43.876Z,4.30
2024-02-28T08:14:11.741Z,5.88
2024-02-28T08:16:39.227Z,5.22
2024-02-28T08:19:06.604Z,4.35
2024-02-28T08:21:33.959Z,5.13
2024-02-28T08:24:03.768Z,4.38
2024-02-28T08:26:31.569Z,4.68
2024-02-28T08:28:58.703Z,5.15
2024-02-28T08:31:25.911Z,5.40
2024-02-28T08:33:53.722Z,5.80
2024-02-28T08:36:21.090Z,6.50
2024-02-28T08:38:48.603Z,6.57
2024-02-28T08:41:15.946Z,6.20
2024-02-28T08:43:43.164Z,6.57
2024-02-28T08:46:15.092Z,6.35
2024-02-28T08:48:42.795Z,6.55
2024-02-28T08:51:10.145Z,7.32
2024-02-28T08:53:37.355Z,5.93
2024-02-28T08:56:04.691Z,5.03
2024-02-28T08:58:32.027Z,4.75
2024-02-28T09:00:59.774Z,4.43
2024-02-28T09:03:26.884Z,3.70
2024-02-28T09:05:54.029Z,3.63
2024-02-28T09:08:21.315Z,3.05
2024-02-28T09:10:48.889Z,3.58
2024-02-28T09:13:16.857Z,3.00
2024-02-28T09:15:44.660Z,3.30
2024-02-28T09:18:11.921Z,2.67
2024-02-28T09:20:41.317Z,2.70
2024-02-28T09:23:08.504Z,3.13
2024-02-28T09:25:36.639Z,3.17
2024-02-28T09:28:04.196Z,2.88
2024-02-28T09:30:39.822Z,2.40
2024-02-28T09:33:13.533Z,2.13
2024-02-28T09:35:41.353Z,2.72
2024-02-28T09:38:09.067Z,2.38
2024-02-28T09:40:36.168Z,2.50
2024-02-28T09:43:04.712Z,2.40
2024-02-28T09:45:33.732Z,2.08
2024-02-28T09:48:04.956Z,2.83
2024-02-28T09:50:32.328Z,2.40
2024-02-28T09:53:09.466Z,1.92
2024-02-28T09:55:38.045Z,1.63
2024-02-28T09:58:06.022Z,1.50
2024-02-28T10:00:35.240Z,1.45
2024-02-28T10:03:04.295Z,1.63
2024-02-28T10:05:31.800Z,1.73
2024-02-28T10:07:59.214Z,1.85
2024-02-28T10:10:26.410Z,2.15
2024-02-28T10:12:53.586Z,2.17
2024-02-28T10:15:20.709Z,2.83
2024-02-28T10:17:47.832Z,2.30
2024-02-28T10:20:14.990Z,2.90
2024-02-28T10:22:42.583Z,3.25
2024-02-28T10:25:10.385Z,2.95
2024-02-28T10:27:37.796Z,3.63
2024-02-28T10:30:08.627Z,2.08
2024-02-28T10:32:37.312Z,1.42
2024-02-28T10:35:05.644Z,1.92
2024-02-28T10:37:34.381Z,1.85
2024-02-28T10:40:02.944Z,2.25
2024-02-28T10:42:31.679Z,1.98
2024-02-28T10:45:10.819Z,2.13
2024-02-28T10:47:51.647Z,2.33
2024-02-28T10:50:19.368Z,2.20
2024-02-28T10:52:52.412Z,2.15
2024-02-28T10:55:24.764Z,1.98
2024-02-28T10:58:02.623Z,1.92
2024-02-28T11:00:30.811Z,2.60
2024-02-28T11:02:59.601Z,2.53
2024-02-28T11:05:42.758Z,2.33
2024-02-28T11:10:45.339Z,2.30
2024-02-28T11:13:23.347Z,3.83
2024-02-28T11:15:50.516Z,2.80
2024-02-28T11:18:17.777Z,3.42
2024-02-28T11:20:47.632Z,2.20
2024-02-28T11:23:18.042Z,2.72
2024-02-28T11:25:45.312Z,2.83
2024-02-28T11:28:12.583Z,2.97
2024-02-28T11:30:39.825Z,2.72
2024-02-28T11:33:09.583Z,2.80
2024-02-28T11:35:37.523Z,3.03
2024-02-28T11:38:07.804Z,3.35
2024-02-28T11:40:35.492Z,2.70
2024-02-28T11:43:05.024Z,2.95
2024-02-28T11:45:32.664Z,3.40
2024-02-28T11:47:59.842Z,2.75
2024-02-28T11:50:27.796Z,3.00
2024-02-28T11:52:55.309Z,4.05
2024-02-28T11:55:22.623Z,4.88
2024-02-28T11:57:49.861Z,3.55
2024-02-28T12:00:17.135Z,3.50
2024-02-28T12:02:44.261Z,4.40
2024-02-28T12:05:11.451Z,3.55
2024-02-28T12:07:38.922Z,3.80
2024-02-28T12:10:08.111Z,3.20
2024-02-28T12:12:35.744Z,3.72
2024-02-28T12:15:06.559Z,4.60
2024-02-28T12:17:34.099Z,4.38
2024-02-28T12:20:02.537Z,3.83
2024-02-28T12:22:31.594Z,4.25
2024-02-28T12:24:59.295Z,4.82
2024-02-28T12:27:26.718Z,4.05
2024-02-28T12:29:53.955Z,3.47
2024-02-28T12:34:08.391Z,3.83
2024-02-28T12:36:35.852Z,3.40
2024-02-28T12:39:04.458Z,2.97
2024-02-28T12:41:31.699Z,2.92
2024-02-28T12:43:58.983Z,3.45
2024-02-28T12:46:26.627Z,3.15
2024-02-28T12:48:53.906Z,2.72
2024-02-28T12:51:42.685Z,3.50
2024-02-28T12:54:10.335Z,4.13
2024-02-28T12:56:40.531Z,3.75
2024-02-28T12:59:11.111Z,2.80
2024-02-28T13:04:07.023Z,3.53
2024-02-28T13:06:34.409Z,2.55
2024-02-28T13:09:01.993Z,1.70
2024-02-28T13:11:29.545Z,2.30
2024-02-28T13:13:56.900Z,1.60
2024-02-28T13:16:24.860Z,3.60
2024-02-28T13:18:52.021Z,1.60
2024-02-28T13:21:19.335Z,2.83
2024-02-28T13:23:46.705Z,3.03
2024-02-28T13:26:19.588Z,3.30
2024-02-28T13:28:50.567Z,2.45
2024-02-28T13:31:19.831Z,2.75
2024-02-28T13:33:56.135Z,2.28
2024-02-28T13:36:23.388Z,3.70
2024-02-28T13:38:51.136Z,4.10
2024-02-28T13:41:18.237Z,2.85
2024-02-28T13:43:45.396Z,2.67
2024-02-28T13:46:13.039Z,3.08
2024-02-28T13:48:40.139Z,2.45
2024-02-28T13:51:07.433Z,2.05
2024-02-28T13:53:34.743Z,1.65
2024-02-28T13:56:01.966Z,2.22
2024-02-28T13:58:36.583Z,2.50
2024-02-28T14:01:11.009Z,2.40
2024-02-28T14:03:41.209Z,2.33
2024-02-28T14:06:10.381Z,3.45
2024-02-28T14:08:37.547Z,2.42
2024-02-28T14:11:06.076Z,1.88
2024-02-28T14:13:33.614Z,1.90
2024-02-28T14:16:00.842Z,1.85
2024-02-28T14:18:28.459Z,2.17
2024-02-28T14:20:55.851Z,2.92
2024-02-28T14:23:23.004Z,3.22
2024-02-28T14:25:50.211Z,1.75
2024-02-28T14:28:20.621Z,1.90
2024-02-28T14:30:50.762Z,2.10
2024-02-28T14:33:18.290Z,1.80
2024-02-28T14:35:45.688Z,2.33
2024-02-28T14:38:13.987Z,2.30
2024-02-28T14:40:42.106Z,2.38
2024-02-28T14:43:10.119Z,1.67
2024-02-28T14:45:39.926Z,2.50
2024-02-28T14:48:08.804Z,1.80
2024-02-28T14:50:35.983Z,2.88
2024-02-28T14:53:04.423Z,1.83
2024-02-28T14:55:31.749Z,2.17
2024-02-28T14:58:00.311Z,1.50
2024-02-28T15:00:29.507Z,2.10
2024-02-28T15:02:56.759Z,1.65
2024-02-28T15:05:23.946Z,4.03
2024-02-28T15:07:51.153Z,2.17
2024-02-28T15:10:18.496Z,1.42
2024-02-28T15:12:47.040Z,5.95
2024-02-28T15:15:14.219Z,3.50
2024-02-28T15:17:41.670Z,2.28
2024-02-28T15:20:09.852Z,1.60
2024-02-28T15:22:39.983Z,1.35
2024-02-28T15:25:08.741Z,1.70
2024-02-28T15:27:35.919Z,1.33
2024-02-28T15:30:06.292Z,1.00
2024-02-28T15:32:34.036Z,0.88
2024-02-28T15:35:01.450Z,0.68
2024-02-28T15:37:29.412Z,0.85
2024-02-28T15:39:57.244Z,0.98
2024-02-28T15:42:24.512Z,1.10
2024-02-28T15:44:51.648Z,1.08
2024-02-28T15:47:18.910Z,1.27
2024-02-28T15:49:47.864Z,1.00
2024-02-28T15:52:15.355Z,1.33
2024-02-28T15:54:42.624Z,1.23
2024-02-28T15:57:11.391Z,1.77
2024-02-28T15:59:40.085Z,1.20
2024-02-28T16:02:11.051Z,1.70
2024-02-28T16:04:38.947Z,1.65
2024-02-28T16:07:06.337Z,1.30
2024-02-28T16:09:33.551Z,1.35
2024-02-28T16:12:00.736Z,1.70
2024-02-28T16:14:27.942Z,1.30
2024-02-28T16:16:55.514Z,1.58
2024-02-28T16:19:26.995Z,1.33
2024-02-28T16:21:56.407Z,1.20
2024-02-28T16:24:24.126Z,1.50
2024-02-28T16:26:51.606Z,1.52
2024-02-28T16:29:18.848Z,1.80
2024-02-28T16:31:50.547Z,1.15
2024-02-28T16:34:20.325Z,1.30
2024-02-28T16:36:49.879Z,1.15
2024-02-28T16:39:20.552Z,1.48
2024-02-28T16:41:47.891Z,2.92
2024-02-28T16:44:14.995Z,2.30
2024-02-28T16:46:42.527Z,1.27
2024-02-28T16:49:09.982Z,2.63
2024-02-28T16:51:39.152Z,2.42
2024-02-28T16:56:35.175Z,2.83
2024-02-28T16:59:02.902Z,1.60
2024-02-28T17:01:30.748Z,1.42
2024-02-28T17:03:58.251Z,2.03
2024-02-28T17:06:25.697Z,3.20
2024-02-28T17:08:52.983Z,2.88
2024-02-28T17:11:22.163Z,2.55
2024-02-28T17:13:49.781Z,2.08
2024-02-28T17:16:18.830Z,2.50
2024-02-28T17:18:46.914Z,2.10
2024-02-28T17:21:14.276Z,2.17
2024-02-28T17:23:41.568Z,4.07
2024-02-28T17:26:08.802Z,4.65
2024-02-28T17:28:36.259Z,3.30
2024-02-28T17:31:04.512Z,2.90
2024-02-28T17:33:31.735Z,2.70
2024-02-28T17:35:59.227Z,2.03
2024-02-28T17:38:26.557Z,1.80
2024-02-28T17:40:53.896Z,2.03
2024-02-28T17:43:21.032Z,2.15
2024-02-28T17:45:48.527Z,1.52
2024-02-28T17:48:19.894Z,2.30
2024-02-28T17:50:47.217Z,2.80
2024-02-28T17:53:14.369Z,1.55
2024-02-28T17:55:41.565Z,1.60
2024-02-28T17:58:09.209Z,1.17
2024-02-28T18:00:36.479Z,1.50
2024-02-28T18:03:08.311Z,1.60
2024-02-28T18:05:36.040Z,2.20
2024-02-28T18:08:04.215Z,2.30
2024-02-28T18:10:31.276Z,2.15
2024-02-28T18:12:58.629Z,1.20
2024-02-28T18:15:25.893Z,1.45
2024-02-28T18:17:53.193Z,1.88
2024-02-28T18:20:20.491Z,1.00
2024-02-28T18:22:48.387Z,1.15
2024-02-28T18:25:15.726Z,1.50
2024-02-28T18:27:43.016Z,1.02
2024-02-28T18:30:12.550Z,1.05
2024-02-28T18:32:41.128Z,1.33
2024-02-28T18:35:08.760Z,1.40
2024-02-28T18:37:40.999Z,2.15
2024-02-28T18:40:17.107Z,1.70
2024-02-28T18:42:45.998Z,2.42
2024-02-28T18:45:13.316Z,1.75
2024-02-28T18:47:43.194Z,1.80
2024-02-28T18:50:10.981Z,1.88
2024-02-28T18:52:39.193Z,1.98
2024-02-28T18:55:07.013Z,2.60
2024-02-28T18:57:35.489Z,3.35
2024-02-28T19:00:05.045Z,4.07
2024-02-28T19:02:34.275Z,2.70
2024-02-28T19:05:01.904Z,2.70
2024-02-28T19:07:30.869Z,2.67
2024-02-28T19:09:58.287Z,2.75
2024-02-28T19:12:26.091Z,1.52
2024-02-28T19:14:53.355Z,2.97
2024-02-28T19:17:20.883Z,1.70
2024-02-28T19:19:48.057Z,1.20
2024-02-28T19:22:15.413Z,1.30
2024-02-28T19:24:43.221Z,1.15
2024-02-28T19:27:10.594Z,1.73
2024-02-28T19:29:38.921Z,1.75
2024-02-28T19:32:07.258Z,1.80
2024-02-28T19:34:34.757Z,1.80
2024-02-28T19:37:02.062Z,1.67
2024-02-28T19:39:29.476Z,1.42
2024-02-28T19:41:58.726Z,1.83
2024-02-28T19:44:26.114Z,1.23
2024-02-28T19:46:53.346Z,2.35
2024-02-28T19:49:20.559Z,2.05
2024-02-28T19:51:48.472Z,2.15
2024-02-28T19:54:15.880Z,4.68
2024-02-28T19:56:44.097Z,1.45
2024-02-28T19:59:11.242Z,2.95
2024-02-28T20:01:38.694Z,2.75
2024-02-28T20:04:07.077Z,2.92
2024-02-28T20:06:34.480Z,3.58
2024-02-28T20:09:03.936Z,1.60
2024-02-28T20:11:31.585Z,3.95
2024-02-28T20:13:59.169Z,2.45
2024-02-28T20:16:27.030Z,1.67
2024-02-28T20:18:56.424Z,1.63
2024-02-28T20:21:28.087Z,1.63
2024-02-28T20:24:01.366Z,1.67
2024-02-28T20:26:30.983Z,2.33
2024-02-28T20:28:58.695Z,2.75
2024-02-28T20:31:26.069Z,2.63
2024-02-28T20:33:56.906Z,2.42
2024-02-28T20:38:52.196Z,2.28
2024-02-28T20:41:19.942Z,1.98
2024-02-28T20:43:51.598Z,1.88
2024-02-28T20:48:50.497Z,1.77
2024-02-28T20:51:21.114Z,2.70
2024-02-28T20:53:55.016Z,3.42
2024-02-28T20:56:26.927Z,2.08
2024-02-28T20:58:56.359Z,2.58
2024-02-28T21:01:28.477Z,2.10
2024-02-28T21:03:56.621Z,1.48
2024-02-28T21:06:24.383Z,1.95
2024-02-28T21:08:52.957Z,2.00
2024-02-28T21:11:20.538Z,2.33
2024-02-28T21:13:48.202Z,1.92
2024-02-28T21:16:18.577Z,1.60
2024-02-28T21:18:45.886Z,1.80
2024-02-28T21:21:14.984Z,2.20
2024-02-28T21:23:43.185Z,1.50
2024-02-28T21:26:14.236Z,1.77
2024-02-28T21:28:42.450Z,1.63
2024-02-28T21:31:09.868Z,1.35
2024-02-28T21:33:37.605Z,2.03
2024-02-28T21:36:05.542Z,1.90
2024-02-28T21:38:33.100Z,1.60
2024-02-28T21:41:01.185Z,1.65
2024-02-28T21:43:28.552Z,1.58
2024-02-28T21:45:55.861Z,1.30
2024-02-28T21:48:23.727Z,1.58
2024-02-28T21:50:53.884Z,1.75
2024-02-28T21:53:21.282Z,1.30
2024-02-28T21:55:48.729Z,1.55
2024-02-28T21:58:17.021Z,1.65
2024-02-28T22:00:44.436Z,1.58
2024-02-28T22:03:11.931Z,1.48
2024-02-28T22:05:39.261Z,1.50
2024-02-28T22:08:06.945Z,1.30
2024-02-28T22:10:34.601Z,1.27
2024-02-28T22:13:02.051Z,1.30
2024-02-28T22:15:29.383Z,1.30
2024-02-28T22:17:57.339Z,1.67
2024-02-28T22:20:24.832Z,1.90
2024-02-28T22:22:52.211Z,1.70
2024-02-28T22:25:19.566Z,1.65
2024-02-28T22:27:46.695Z,1.52
2024-02-28T22:30:14.460Z,1.58
2024-02-28T22:32:41.677Z,7.10
2024-02-28T22:35:09.487Z,2.67
2024-02-28T22:37:36.752Z,1.60
2024-02-28T22:40:04.708Z,1.20
2024-02-28T22:42:33.064Z,0.60
2024-02-28T22:45:00.410Z,1.60
2024-02-28T22:47:27.786Z,1.35
2024-02-28T22:49:55.153Z,1.20
2024-02-28T22:52:22.437Z,1.25
2024-02-28T22:54:50.161Z,1.40
2024-02-28T22:57:17.438Z,1.30
2024-02-28T22:59:44.626Z,0.90
2024-02-28T23:02:11.981Z,0.93
2024-02-28T23:04:39.417Z,0.85
2024-02-28T23:07:06.842Z,1.27
2024-02-28T23:09:34.088Z,1.20
2024-02-28T23:12:01.310Z,1.25
2024-02-28T23:14:28.348Z,0.90
2024-02-28T23:16:55.637Z,1.05
2024-02-28T23:19:23.295Z,1.50
2024-02-28T23:21:50.650Z,1.25
2024-02-28T23:24:17.929Z,1.13
2024-02-28T23:26:45.089Z,1.05
2024-02-28T23:29:12.529Z,0.60
2024-02-28T23:31:39.733Z,0.50
2024-02-28T23:34:08.068Z,0.77
2024-02-28T23:36:35.469Z,0.70
2024-02-28T23:39:02.750Z,0.35
2024-02-28T23:41:30.301Z,0.60
2024-02-28T23:43:58.677Z,1.02
2024-02-28T23:46:26.147Z,0.77
2024-02-28T23:48:53.610Z,0.75
2024-02-28T23:51:20.682Z,1.00
2024-02-28T23:53:47.724Z,1.55
2024-02-28T23:56:14.847Z,1.10
2024-02-28T23:58:42.069Z,0.80
